Time;durP1;ratioP1;P1;durP2;ratioP2;P2;SDS_P1;SDS_P2;PMS_P1;PMS_P2;Temp;Humidity;BMP_temperature;BMP_pressure;BME280_temperature;BME280_humidity;BME280_pressure;Samples;Min_cycle;Max_cycle;Signal;HPM_P1;HPM_P2
2023/05/10 00:02:17;;;;;;;6.13;2.80;;;;;;;;;;5060538;28;20016;-76
2023/05/10 00:04:43;;;;;;;5.95;2.60;;;;;;;;;;5063024;28;20045;-75
2023/05/10 00:07:10;;;;;;;8.35;3.10;;;;;;;;;;5068335;28;20024;-76
2023/05/10 00:09:36;;;;;;;10.45;3.55;;;;;;;;;;5066910;28;20482;-77
2023/05/10 00:12:02;;;;;;;5.15;2.42;;;;;;;;;;5063494;28;20037;-77
2023/05/10 00:14:28;;;;;;;12.25;2.95;;;;;;;;;;5066440;28;20036;-78
2023/05/10 00:16:54;;;;;;;4.75;2.80;;;;;;;;;;5061326;28;20020;-77
2023/05/10 00:19:20;;;;;;;5.00;2.60;;;;;;;;;;5068043;28;20024;-76
2023/05/10 00:21:47;;;;;;;8.93;2.50;;;;;;;;;;5065194;28;20076;-77
2023/05/10 00:24:13;;;;;;;6.53;2.58;;;;;;;;;;5066508;28;20386;-77
2023/05/10 00:26:39;;;;;;;7.65;3.10;;;;;;;;;;5067295;28;20036;-77
2023/05/10 00:29:05;;;;;;;11.98;3.10;;;;;;;;;;5064431;28;20028;-77
2023/05/10 00:31:31;;;;;;;8.30;3.00;;;;;;;;;;5066045;28;20028;-77
2023/05/10 00:33:57;;;;;;;4.18;2.70;;;;;;;;;;5066867;28;20039;-77
2023/05/10 00:36:23;;;;;;;6.60;2.53;;;;;;;;;;5063330;28;20036;-77
2023/05/10 00:38:49;;;;;;;5.95;2.92;;;;;;;;;;5060353;28;20056;-76
2023/05/10 00:41:17;;;;;;;8.82;3.00;;;;;;;;;;5059758;28;20565;-76
2023/05/10 00:43:45;;;;;;;10.07;2.83;;;;;;;;;;5068093;28;20028;-78
2023/05/10 00:46:12;;;;;;;11.70;2.95;;;;;;;;;;5077933;28;20036;-75
2023/05/10 00:48:38;;;;;;;6.35;2.92;;;;;;;;;;5058792;28;20099;-77
2023/05/10 00:51:04;;;;;;;6.60;2.60;;;;;;;;;;5060984;28;20036;-78
2023/05/10 00:53:32;;;;;;;7.28;2.88;;;;;;;;;;5063644;28;20033;-77
2023/05/10 00:55:59;;;;;;;5.72;2.90;;;;;;;;;;5065653;28;20058;-76
2023/05/10 00:58:28;;;;;;;11.07;3.25;;;;;;;;;;5065653;28;20103;-77
2023/05/10 01:00:56;;;;;;;4.85;2.58;;;;;;;;;;5065987;28;20044;-77
2023/05/10 01:03:22;;;;;;;9.18;4.35;;;;;;;;;;5065441;28;20024;-77
2023/05/10 01:05:48;;;;;;;7.07;2.40;;;;;;;;;;5058765;28;20546;-78
2023/05/10 01:08:14;;;;;;;8.80;2.95;;;;;;;;;;5064315;28;20024;-76
2023/05/10 01:10:45;;;;;;;6.05;2.40;;;;;;;;;;5066489;28;20039;-77
2023/05/10 01:13:12;;;;;;;8.25;4.00;;;;;;;;;;5061011;28;20028;-76
2023/05/10 01:15:38;;;;;;;6.32;2.55;;;;;;;;;;5065462;28;20024;-76
2023/05/10 01:18:04;;;;;;;6.63;2.50;;;;;;;;;;5064761;28;20371;-77
2023/05/10 01:20:33;;;;;;;3.67;2.25;;;;;;;;;;5066165;28;20033;-76
2023/05/10 01:23:18;;;;;;;5.50;2.53;;;;;;;;;;5060813;28;20048;-77
2023/05/10 01:25:48;;;;;;;5.22;3.33;;;;;;;;;;5067843;28;20028;-76
2023/05/10 01:28:23;;;;;;;4.63;3.17;;;;;;;;;;5081153;28;20058;-78
2023/05/10 01:30:55;;;;;;;4.18;2.20;;;;;;;;;;5066292;28;20039;-76
2023/05/10 01:33:31;;;;;;;5.47;3.00;;;;;;;;;;5066068;28;20363;-77
2023/05/10 01:36:03;;;;;;;5.15;2.38;;;;;;;;;;5061043;28;20580;-76
2023/05/10 01:38:32;;;;;;;6.32;2.80;;;;;;;;;;5063990;28;20032;-76
2023/05/10 01:41:07;;;;;;;4.65;2.80;;;;;;;;;;5052405;28;20127;-76
2023/05/10 01:43:37;;;;;;;7.57;2.50;;;;;;;;;;5064142;28;20459;-76
2023/05/10 01:46:10;;;;;;;4.22;2.17;;;;;;;;;;5061909;28;20036;-77
2023/05/10 01:48:37;;;;;;;4.13;2.30;;;;;;;;;;5062171;28;20480;-77
2023/05/10 01:51:05;;;;;;;7.20;3.08;;;;;;;;;;5066184;28;20486;-79
2023/05/10 01:53:32;;;;;;;3.65;2.13;;;;;;;;;;5065155;28;20501;-78
2023/05/10 01:55:59;;;;;;;3.17;2.25;;;;;;;;;;5062964;28;20522;-78
2023/05/10 01:58:28;;;;;;;4.18;1.98;;;;;;;;;;5064730;28;20024;-77
2023/05/10 02:00:55;;;;;;;3.65;2.55;;;;;;;;;;5065665;28;20525;-76
2023/05/10 02:03:23;;;;;;;5.45;2.17;;;;;;;;;;5062119;28;20020;-76
2023/05/10 02:05:51;;;;;;;4.25;2.50;;;;;;;;;;5065925;28;20685;-78
2023/05/10 02:08:18;;;;;;;7.05;2.95;;;;;;;;;;5062085;28;20047;-78
2023/05/10 02:10:46;;;;;;;9.35;3.00;;;;;;;;;;5066326;28;20062;-79
2023/05/10 02:13:13;;;;;;;8.52;2.70;;;;;;;;;;5068312;28;20094;-78
2023/05/10 02:15:40;;;;;;;6.75;2.60;;;;;;;;;;5066812;28;20036;-78
2023/05/10 02:18:07;;;;;;;5.35;2.58;;;;;;;;;;5071644;28;20052;-77
2023/05/10 02:20:33;;;;;;;5.55;2.30;;;;;;;;;;5068715;28;20036;-76
2023/05/10 02:23:00;;;;;;;4.85;2.83;;;;;;;;;;5059928;28;20055;-77
2023/05/10 02:25:27;;;;;;;4.90;2.22;;;;;;;;;;5065918;28;20020;-76
2023/05/10 02:27:55;;;;;;;8.02;2.58;;;;;;;;;;5065685;28;20028;-76
2023/05/10 02:30:22;;;;;;;7.45;2.78;;;;;;;;;;5063422;28;20115;-76
2023/05/10 02:32:49;;;;;;;6.85;3.10;;;;;;;;;;5077564;28;20478;-76
2023/05/10 02:35:15;;;;;;;7.05;2.25;;;;;;;;;;5056901;28;20064;-78
2023/05/10 02:37:42;;;;;;;7.45;2.13;;;;;;;;;;5063476;28;20028;-76
2023/05/10 02:40:09;;;;;;;7.57;2.33;;;;;;;;;;5058109;28;20031;-78
2023/05/10 02:42:37;;;;;;;9.48;2.55;;;;;;;;;;5064302;28;20471;-81
2023/05/10 02:45:06;;;;;;;5.05;3.03;;;;;;;;;;5063800;28;20054;-78
2023/05/10 02:47:32;;;;;;;8.10;3.50;;;;;;;;;;5061403;28;20071;-77
2023/05/10 02:49:58;;;;;;;7.07;2.70;;;;;;;;;;5053033;28;20044;-77
2023/05/10 02:52:31;;;;;;;5.65;2.50;;;;;;;;;;5064753;28;20028;-78
2023/05/10 02:54:59;;;;;;;9.90;2.83;;;;;;;;;;5060746;28;20436;-77
2023/05/10 02:57:28;;;;;;;8.00;2.92;;;;;;;;;;5066214;28;20036;-76
2023/05/10 02:59:55;;;;;;;6.75;2.92;;;;;;;;;;5058226;28;20070;-77
2023/05/10 03:02:21;;;;;;;6.75;2.80;;;;;;;;;;5065305;28;20042;-76
2023/05/10 03:04:47;;;;;;;7.45;3.28;;;;;;;;;;5055788;28;20078;-77
2023/05/10 03:07:13;;;;;;;5.53;2.50;;;;;;;;;;5066399;28;20038;-76
2023/05/10 03:09:40;;;;;;;8.55;2.55;;;;;;;;;;5067285;28;20644;-76
2023/05/10 03:12:12;;;;;;;4.65;2.70;;;;;;;;;;5066097;28;20032;-77
2023/05/10 03:14:58;;;;;;;6.00;2.10;;;;;;;;;;5060968;28;20476;-79
2023/05/10 03:17:29;;;;;;;5.15;2.60;;;;;;;;;;5028256;28;20105;-77
2023/05/10 03:19:57;;;;;;;4.60;2.38;;;;;;;;;;5062859;28;20437;-76
2023/05/10 03:22:26;;;;;;;7.43;2.15;;;;;;;;;;5067474;28;20063;-77
2023/05/10 03:24:54;;;;;;;4.45;2.20;;;;;;;;;;5063990;28;20099;-77
2023/05/10 03:27:21;;;;;;;5.95;2.60;;;;;;;;;;5060655;28;20048;-78
2023/05/10 03:29:47;;;;;;;7.47;2.50;;;;;;;;;;5064907;28;20040;-77
2023/05/10 03:32:13;;;;;;;7.40;3.15;;;;;;;;;;5063671;28;20033;-77
2023/05/10 03:34:45;;;;;;;4.78;2.13;;;;;;;;;;5067616;28;20079;-78
2023/05/10 03:37:11;;;;;;;4.65;2.58;;;;;;;;;;5065670;28;20055;-77
2023/05/10 03:39:37;;;;;;;5.22;2.40;;;;;;;;;;5058409;28;20036;-78
2023/05/10 03:42:03;;;;;;;6.00;2.90;;;;;;;;;;5064268;28;20029;-76
2023/05/10 03:44:29;;;;;;;5.25;2.78;;;;;;;;;;5068508;28;20024;-78
2023/05/10 03:46:56;;;;;;;8.55;2.50;;;;;;;;;;5064151;28;20253;-77
2023/05/10 03:49:23;;;;;;;4.25;2.25;;;;;;;;;;5063586;28;20048;-78
2023/05/10 03:51:49;;;;;;;13.93;3.90;;;;;;;;;;5071814;28;20439;-77
2023/05/10 03:54:15;;;;;;;11.57;3.28;;;;;;;;;;5068418;28;20054;-78
2023/05/10 03:56:41;;;;;;;5.78;2.70;;;;;;;;;;5062569;28;20155;-76
2023/05/10 03:59:08;;;;;;;10.20;2.75;;;;;;;;;;5062294;28;20075;-77
2023/05/10 04:01:34;;;;;;;7.70;3.05;;;;;;;;;;5063931;28;20027;-77
2023/05/10 04:04:00;;;;;;;3.90;2.15;;;;;;;;;;5063511;28;20021;-78
2023/05/10 04:06:27;;;;;;;7.10;2.67;;;;;;;;;;5063933;28;20066;-78
2023/05/10 04:08:53;;;;;;;7.13;2.97;;;;;;;;;;5066585;28;20028;-76
2023/05/10 04:11:21;;;;;;;8.90;3.47;;;;;;;;;;5068421;28;20100;-76
2023/05/10 04:13:48;;;;;;;9.45;3.05;;;;;;;;;;5063830;28;20036;-78
2023/05/10 04:16:14;;;;;;;8.57;2.22;;;;;;;;;;5056750;28;20086;-78
2023/05/10 04:18:40;;;;;;;7.68;2.88;;;;;;;;;;5064288;28;20036;-78
2023/05/10 04:21:12;;;;;;;9.73;2.80;;;;;;;;;;5063182;28;20778;-76
2023/05/10 04:23:38;;;;;;;9.32;2.85;;;;;;;;;;5064352;28;20031;-78
2023/05/10 04:26:04;;;;;;;5.47;2.47;;;;;;;;;;5067653;28;20024;-78
2023/05/10 04:28:30;;;;;;;8.40;2.17;;;;;;;;;;5064494;28;20035;-78
2023/05/10 04:31:03;;;;;;;5.50;2.50;;;;;;;;;;5063228;28;20086;-77
2023/05/10 04:33:29;;;;;;;12.00;2.88;;;;;;;;;;5060695;28;20119;-77
2023/05/10 04:35:55;;;;;;;7.13;2.40;;;;;;;;;;5058941;28;20682;-77
2023/05/10 04:38:21;;;;;;;4.85;2.60;;;;;;;;;;5066598;28;20032;-76
2023/05/10 04:40:47;;;;;;;7.97;2.38;;;;;;;;;;5063408;28;20032;-76
2023/05/10 04:43:13;;;;;;;9.27;2.65;;;;;;;;;;5060641;28;20039;-76
2023/05/10 04:45:40;;;;;;;8.68;2.50;;;;;;;;;;5063888;28;20056;-77
2023/05/10 04:48:07;;;;;;;6.40;2.47;;;;;;;;;;5063034;28;20029;-76
2023/05/10 04:50:33;;;;;;;8.77;3.38;;;;;;;;;;5063920;28;20485;-76
2023/05/10 04:52:59;;;;;;;5.10;2.17;;;;;;;;;;5063017;28;20054;-77
2023/05/10 04:55:26;;;;;;;6.35;2.20;;;;;;;;;;5058752;28;20024;-77
2023/05/10 04:57:52;;;;;;;10.77;2.67;;;;;;;;;;5065435;28;20108;-77
2023/05/10 05:00:19;;;;;;;4.70;2.10;;;;;;;;;;5064011;28;20043;-76
2023/05/10 05:02:45;;;;;;;4.55;2.40;;;;;;;;;;5062847;28;20032;-77
2023/05/10 05:05:12;;;;;;;6.07;2.65;;;;;;;;;;5063831;28;20097;-76
2023/05/10 05:07:39;;;;;;;7.18;3.05;;;;;;;;;;5069027;28;20099;-77
2023/05/10 05:10:06;;;;;;;7.30;2.53;;;;;;;;;;5072186;28;20024;-76
2023/05/10 05:12:32;;;;;;;4.93;2.30;;;;;;;;;;5068211;28;20105;-77
2023/05/10 05:14:58;;;;;;;7.85;2.45;;;;;;;;;;5065664;28;20051;-76
2023/05/10 05:17:25;;;;;;;8.00;2.55;;;;;;;;;;5064321;28;20030;-76
2023/05/10 05:19:51;;;;;;;5.22;2.17;;;;;;;;;;5067432;28;20429;-76
2023/05/10 05:22:19;;;;;;;10.80;2.67;;;;;;;;;;5065238;28;20040;-77
2023/05/10 05:24:45;;;;;;;6.43;2.50;;;;;;;;;;5068289;28;20099;-76
2023/05/10 05:27:11;;;;;;;3.47;2.08;;;;;;;;;;5059053;28;20044;-77
2023/05/10 05:29:37;;;;;;;7.10;2.05;;;;;;;;;;5064120;28;20108;-75
2023/05/10 05:32:04;;;;;;;6.40;2.40;;;;;;;;;;5063003;28;20036;-75
2023/05/10 05:34:30;;;;;;;6.43;2.50;;;;;;;;;;5063451;28;20029;-75
2023/05/10 05:36:56;;;;;;;6.28;2.10;;;;;;;;;;5065811;28;20399;-76
2023/05/10 05:39:22;;;;;;;5.60;2.28;;;;;;;;;;5063020;28;20056;-77
2023/05/10 05:41:48;;;;;;;3.33;2.53;;;;;;;;;;5065966;28;20117;-77
2023/05/10 05:44:14;;;;;;;3.55;2.22;;;;;;;;;;5081643;28;20470;-77
2023/05/10 05:46:40;;;;;;;8.65;2.30;;;;;;;;;;5067777;28;20819;-77
2023/05/10 05:49:06;;;;;;;3.20;2.00;;;;;;;;;;5066590;28;20028;-76
2023/05/10 05:51:32;;;;;;;5.10;1.70;;;;;;;;;;5064632;28;20021;-77
2023/05/10 05:53:58;;;;;;;4.53;1.92;;;;;;;;;;5056100;28;20509;-77
2023/05/10 05:56:25;;;;;;;4.07;1.75;;;;;;;;;;5064698;28;20038;-76
2023/05/10 05:58:51;;;;;;;4.18;2.38;;;;;;;;;;5063540;28;20035;-76
2023/05/10 06:01:17;;;;;;;4.05;2.00;;;;;;;;;;5064546;28;20024;-77
2023/05/10 06:03:43;;;;;;;6.70;2.60;;;;;;;;;;5069443;28;20161;-77
2023/05/10 06:06:09;;;;;;;4.63;2.67;;;;;;;;;;5070381;28;20021;-75
2023/05/10 06:08:35;;;;;;;5.15;1.85;;;;;;;;;;5068540;28;20029;-76
2023/05/10 06:11:03;;;;;;;3.03;2.22;;;;;;;;;;5067114;28;20394;-76
2023/05/10 06:13:32;;;;;;;3.50;1.67;;;;;;;;;;5068105;28;20021;-77
2023/05/10 06:16:01;;;;;;;4.60;2.25;;;;;;;;;;5066250;28;20119;-80
2023/05/10 06:18:27;;;;;;;2.45;1.67;;;;;;;;;;5064276;28;20045;-75
2023/05/10 06:20:53;;;;;;;4.38;1.95;;;;;;;;;;5061912;28;20094;-77
2023/05/10 06:23:19;;;;;;;4.80;2.08;;;;;;;;;;5057548;28;20045;-77
2023/05/10 06:25:45;;;;;;;4.63;2.05;;;;;;;;;;5063870;28;20025;-76
2023/05/10 06:28:11;;;;;;;5.85;2.05;;;;;;;;;;5064244;28;20827;-77
2023/05/10 06:30:37;;;;;;;5.53;2.03;;;;;;;;;;5067554;28;20363;-77
2023/05/10 06:33:03;;;;;;;3.05;1.92;;;;;;;;;;5064245;28;20033;-77
2023/05/10 06:35:31;;;;;;;6.88;1.80;;;;;;;;;;5059861;28;20056;-77
2023/05/10 06:37:57;;;;;;;2.10;1.90;;;;;;;;;;5065806;28;20037;-76
2023/05/10 06:40:23;;;;;;;4.97;2.65;;;;;;;;;;5066334;28;20565;-77
2023/05/10 06:42:49;;;;;;;2.25;1.60;;;;;;;;;;5068196;28;20460;-78
2023/05/10 06:45:16;;;;;;;3.70;1.90;;;;;;;;;;5065554;28;20024;-78
2023/05/10 06:47:42;;;;;;;3.03;1.70;;;;;;;;;;5061378;28;20110;-77
2023/05/10 06:50:08;;;;;;;4.65;1.90;;;;;;;;;;5063520;28;20033;-77
2023/05/10 06:52:35;;;;;;;3.85;2.10;;;;;;;;;;5064622;28;20076;-75
2023/05/10 06:55:01;;;;;;;3.95;2.03;;;;;;;;;;5069541;28;20039;-78
2023/05/10 06:57:27;;;;;;;4.90;1.98;;;;;;;;;;5067147;28;20039;-77
2023/05/10 06:59:55;;;;;;;5.47;3.03;;;;;;;;;;5060062;28;20068;-76
2023/05/10 07:02:21;;;;;;;2.80;1.70;;;;;;;;;;5066934;28;20024;-77
2023/05/10 07:04:47;;;;;;;3.95;2.00;;;;;;;;;;5061906;28;20131;-78
2023/05/10 07:07:14;;;;;;;3.58;1.80;;;;;;;;;;5077542;28;20032;-76
2023/05/10 07:09:40;;;;;;;1.98;1.80;;;;;;;;;;5063005;28;20496;-77
2023/05/10 07:12:06;;;;;;;3.22;1.70;;;;;;;;;;5063039;28;20028;-77
2023/05/10 07:14:33;;;;;;;2.72;1.55;;;;;;;;;;5059592;28;20043;-76
2023/05/10 07:16:59;;;;;;;3.58;1.73;;;;;;;;;;5060336;28;20040;-77
2023/05/10 07:19:25;;;;;;;4.65;1.80;;;;;;;;;;5060568;28;20496;-77
2023/05/10 07:21:51;;;;;;;2.05;1.60;;;;;;;;;;5057539;28;20047;-75
2023/05/10 07:24:17;;;;;;;2.05;1.38;;;;;;;;;;5062235;28;20057;-78
2023/05/10 07:26:43;;;;;;;3.15;1.98;;;;;;;;;;5070089;28;20074;-77
2023/05/10 07:29:10;;;;;;;2.25;1.50;;;;;;;;;;5067376;28;20055;-76
2023/05/10 07:31:36;;;;;;;2.92;1.40;;;;;;;;;;5065461;28;20036;-76
2023/05/10 07:34:03;;;;;;;1.58;1.27;;;;;;;;;;5066069;28;20039;-76
2023/05/10 07:36:29;;;;;;;3.10;1.70;;;;;;;;;;5062342;28;20025;-77
2023/05/10 07:38:57;;;;;;;4.43;1.55;;;;;;;;;;5065418;28;20048;-75
2023/05/10 07:41:23;;;;;;;4.03;1.70;;;;;;;;;;5066682;28;20786;-76
2023/05/10 07:43:53;;;;;;;2.92;1.95;;;;;;;;;;5064105;28;20096;-74
2023/05/10 07:46:21;;;;;;;2.65;1.88;;;;;;;;;;5081154;28;20024;-75
2023/05/10 07:48:48;;;;;;;2.60;1.90;;;;;;;;;;5061067;28;20035;-76
2023/05/10 07:51:14;;;;;;;5.68;1.80;;;;;;;;;;5063551;28;20402;-75
2023/05/10 07:53:40;;;;;;;2.72;1.60;;;;;;;;;;5057847;28;20039;-76
2023/05/10 07:56:29;;;;;;;3.15;2.30;;;;;;;;;;5059278;28;20465;-79
2023/05/10 07:58:55;;;;;;;1.90;1.70;;;;;;;;;;5060947;28;20033;-76
2023/05/10 08:01:21;;;;;;;6.80;1.90;;;;;;;;;;5056558;28;20024;-77
2023/05/10 08:03:47;;;;;;;3.63;1.77;;;;;;;;;;5055059;28;20306;-75
2023/05/10 08:06:15;;;;;;;3.72;1.73;;;;;;;;;;5056207;28;20310;-76
2023/05/10 08:08:42;;;;;;;2.17;1.45;;;;;;;;;;5053609;28;20020;-75
2023/05/10 08:11:08;;;;;;;2.78;1.50;;;;;;;;;;5058339;28;20033;-76
2023/05/10 08:13:34;;;;;;;3.88;1.70;;;;;;;;;;5060779;28;20034;-74
2023/05/10 08:16:00;;;;;;;2.70;1.70;;;;;;;;;;5057026;28;20035;-76
2023/05/10 08:18:26;;;;;;;2.67;1.58;;;;;;;;;;5060329;28;20025;-76
2023/05/10 08:20:52;;;;;;;2.35;1.60;;;;;;;;;;5058379;28;20040;-76
2023/05/10 08:23:18;;;;;;;2.88;1.90;;;;;;;;;;5057339;28;20036;-75
2023/05/10 08:25:44;;;;;;;2.38;1.45;;;;;;;;;;5055202;28;20048;-76
2023/05/10 08:28:10;;;;;;;2.30;1.45;;;;;;;;;;5059387;28;20043;-75
2023/05/10 08:30:36;;;;;;;2.75;1.58;;;;;;;;;;5055350;28;20032;-75
2023/05/10 08:33:02;;;;;;;4.55;2.35;;;;;;;;;;5059318;28;20054;-76
2023/05/10 08:35:29;;;;;;;2.05;1.73;;;;;;;;;;5057595;28;20367;-75
2023/05/10 08:37:55;;;;;;;3.10;1.80;;;;;;;;;;5057080;28;20199;-75
2023/05/10 08:40:21;;;;;;;2.17;1.50;;;;;;;;;;5058266;28;20447;-75
2023/05/10 08:43:09;;;;;;;2.40;2.15;;;;;;;;;;5065742;28;20086;-76
2023/05/10 08:45:43;;;;;;;2.88;1.80;;;;;;;;;;5062282;28;20103;-77
2023/05/10 08:48:10;;;;;;;4.30;1.70;;;;;;;;;;5057617;28;20398;-76
2023/05/10 08:50:36;;;;;;;3.58;1.80;;;;;;;;;;5059496;28;20033;-76
2023/05/10 08:53:04;;;;;;;2.28;1.60;;;;;;;;;;5058368;28;20514;-76
2023/05/10 08:55:33;;;;;;;3.72;1.80;;;;;;;;;;5060433;28;20033;-76
2023/05/10 08:58:00;;;;;;;1.27;1.20;;;;;;;;;;5059276;28;20036;-76
2023/05/10 09:00:30;;;;;;;1.98;1.65;;;;;;;;;;5060378;28;20060;-75
2023/05/10 09:03:01;;;;;;;5.22;2.03;;;;;;;;;;5059349;28;20028;-76
2023/05/10 09:05:28;;;;;;;3.80;1.90;;;;;;;;;;5060171;28;20633;-76
2023/05/10 09:07:54;;;;;;;1.80;1.65;;;;;;;;;;5061024;28;20028;-75
2023/05/10 09:10:21;;;;;;;2.70;1.60;;;;;;;;;;5061616;28;20412;-77
2023/05/10 09:12:48;;;;;;;1.60;1.50;;;;;;;;;;5064656;28;20770;-76
2023/05/10 09:15:19;;;;;;;2.13;1.40;;;;;;;;;;5060919;28;20032;-76
2023/05/10 09:17:46;;;;;;;3.38;1.58;;;;;;;;;;5058105;28;20036;-75
2023/05/10 09:20:12;;;;;;;3.30;1.52;;;;;;;;;;5062009;28;20036;-75
2023/05/10 09:22:38;;;;;;;3.65;1.70;;;;;;;;;;5059700;28;20040;-76
2023/05/10 09:25:22;;;;;;;1.60;1.50;;;;;;;;;;5062432;28;20043;-75
2023/05/10 09:27:48;;;;;;;1.52;1.23;;;;;;;;;;5062350;28;20100;-77
2023/05/10 09:30:25;;;;;;;1.70;1.48;;;;;;;;;;5061980;28;20041;-77
2023/05/10 09:32:51;;;;;;;1.42;1.33;;;;;;;;;;5059335;28;20054;-75
2023/05/10 09:35:18;;;;;;;1.52;1.42;;;;;;;;;;5062467;28;20553;-74
2023/05/10 09:37:46;;;;;;;3.03;1.70;;;;;;;;;;5061704;28;20169;-76
2023/05/10 09:40:16;;;;;;;1.67;1.52;;;;;;;;;;5058621;28;20550;-76
2023/05/10 09:42:43;;;;;;;2.45;1.75;;;;;;;;;;5061135;28;20093;-77
2023/05/10 09:45:09;;;;;;;3.33;1.60;;;;;;;;;;5059141;28;20023;-76
2023/05/10 09:47:36;;;;;;;3.08;1.50;;;;;;;;;;5061780;28;20063;-77
2023/05/10 09:50:03;;;;;;;2.08;1.50;;;;;;;;;;5062457;28;20032;-75
2023/05/10 09:52:50;;;;;;;1.85;1.50;;;;;;;;;;5084119;28;20024;-77
2023/05/10 09:55:17;;;;;;;1.50;1.40;;;;;;;;;;5066796;28;20024;-77
2023/05/10 09:57:43;;;;;;;3.03;1.75;;;;;;;;;;5059898;28;20037;-76
2023/05/10 10:00:12;;;;;;;2.33;1.48;;;;;;;;;;5064813;28;20024;-77
2023/05/10 10:02:40;;;;;;;1.70;1.60;;;;;;;;;;5068856;28;20024;-76
2023/05/10 10:05:07;;;;;;;1.75;1.60;;;;;;;;;;5062530;28;20021;-76
2023/05/10 10:07:33;;;;;;;1.70;1.60;;;;;;;;;;5065318;28;20029;-76
2023/05/10 10:10:00;;;;;;;2.17;1.60;;;;;;;;;;5063834;28;20437;-76
2023/05/10 10:12:32;;;;;;;2.50;1.55;;;;;;;;;;5062494;28;20082;-76
2023/05/10 10:15:01;;;;;;;2.28;1.83;;;;;;;;;;5064573;28;20033;-76
2023/05/10 10:17:28;;;;;;;1.80;1.65;;;;;;;;;;5059144;28;20055;-76
2023/05/10 10:19:55;;;;;;;2.92;1.70;;;;;;;;;;5063384;28;20140;-77
2023/05/10 10:22:21;;;;;;;3.60;1.70;;;;;;;;;;5058557;28;20037;-76
2023/05/10 10:24:47;;;;;;;2.67;1.60;;;;;;;;;;5064302;28;20029;-76
2023/05/10 10:27:22;;;;;;;2.97;1.70;;;;;;;;;;5062314;28;20102;-75
2023/05/10 10:29:53;;;;;;;2.45;1.50;;;;;;;;;;5057021;28;20032;-77
2023/05/10 10:32:23;;;;;;;3.55;1.50;;;;;;;;;;5056668;28;20060;-77
2023/05/10 10:34:49;;;;;;;1.40;1.30;;;;;;;;;;5056793;28;20878;-76
2023/05/10 10:37:15;;;;;;;2.22;1.67;;;;;;;;;;5058483;28;20698;-77
2023/05/10 10:39:41;;;;;;;2.70;1.70;;;;;;;;;;5061881;28;20040;-78
2023/05/10 10:42:07;;;;;;;2.00;1.60;;;;;;;;;;5069962;28;20029;-76
2023/05/10 10:44:35;;;;;;;1.70;1.60;;;;;;;;;;5062282;28;20029;-76
2023/05/10 10:47:11;;;;;;;1.40;1.40;;;;;;;;;;5065387;28;20025;-76
2023/05/10 10:49:43;;;;;;;1.50;1.40;;;;;;;;;;5062538;28;20025;-77
2023/05/10 10:52:30;;;;;;;1.52;1.42;;;;;;;;;;5060802;28;20115;-77
2023/05/10 10:55:03;;;;;;;2.13;1.35;;;;;;;;;;5058137;28;20347;-76
2023/05/10 10:57:32;;;;;;;1.40;1.40;;;;;;;;;;5065367;28;20035;-77
2023/05/10 11:00:17;;;;;;;2.10;1.60;;;;;;;;;;5054960;28;20029;-76
2023/05/10 11:02:53;;;;;;;1.70;1.60;;;;;;;;;;5056177;28;20108;-77
2023/05/10 11:05:25;;;;;;;1.60;1.50;;;;;;;;;;5058271;28;20036;-75
2023/05/10 11:07:55;;;;;;;2.83;1.40;;;;;;;;;;5066004;28;20364;-76
2023/05/10 11:10:22;;;;;;;2.35;1.80;;;;;;;;;;5064056;28;20024;-77
2023/05/10 11:13:07;;;;;;;2.22;1.70;;;;;;;;;;5060809;28;20028;-76
2023/05/10 11:15:34;;;;;;;1.95;1.80;;;;;;;;;;5064246;28;20040;-75
2023/05/10 11:18:17;;;;;;;1.95;1.75;;;;;;;;;;5062533;28;20105;-77
2023/05/10 11:20:43;;;;;;;1.70;1.60;;;;;;;;;;5062165;28;20470;-78
2023/05/10 11:23:15;;;;;;;2.25;1.55;;;;;;;;;;5067075;28;20096;-76
2023/05/10 11:25:42;;;;;;;2.47;1.85;;;;;;;;;;5059948;28;20020;-77
2023/05/10 11:28:09;;;;;;;1.70;1.60;;;;;;;;;;5062125;28;20108;-76
2023/05/10 11:30:36;;;;;;;2.28;1.60;;;;;;;;;;5057175;28;20040;-77
2023/05/10 11:33:02;;;;;;;2.25;1.60;;;;;;;;;;5061224;28;20028;-77
2023/05/10 11:35:28;;;;;;;2.15;2.05;;;;;;;;;;5063581;28;20028;-77
2023/05/10 11:37:54;;;;;;;2.53;1.50;;;;;;;;;;5064235;28;20037;-76
2023/05/10 11:40:24;;;;;;;1.85;1.75;;;;;;;;;;5068646;28;20051;-76
2023/05/10 11:42:50;;;;;;;1.30;1.30;;;;;;;;;;5069604;28;20043;-76
2023/05/10 11:45:16;;;;;;;1.55;1.45;;;;;;;;;;5065138;28;20033;-76
2023/05/10 11:47:43;;;;;;;1.65;1.55;;;;;;;;;;5069420;28;20028;-78
2023/05/10 11:50:10;;;;;;;3.17;1.60;;;;;;;;;;5068221;28;20028;-80
2023/05/10 11:52:40;;;;;;;2.67;1.60;;;;;;;;;;5068652;28;20020;-76
2023/05/10 11:55:06;;;;;;;4.13;1.80;;;;;;;;;;5065630;28;20025;-77
2023/05/10 11:57:32;;;;;;;1.80;1.65;;;;;;;;;;5068296;28;20082;-77
2023/05/10 11:59:58;;;;;;;2.15;1.60;;;;;;;;;;5065636;28;20102;-77
2023/05/10 12:02:25;;;;;;;2.78;1.60;;;;;;;;;;5061672;28;20571;-76
2023/05/10 12:04:51;;;;;;;2.75;1.80;;;;;;;;;;5062581;28;20036;-77
2023/05/10 12:07:17;;;;;;;2.92;1.60;;;;;;;;;;5062766;28;20028;-75
2023/05/10 12:09:47;;;;;;;1.55;1.45;;;;;;;;;;5059576;28;20033;-77
2023/05/10 12:12:17;;;;;;;3.13;1.60;;;;;;;;;;5063517;28;20037;-77
2023/05/10 12:14:43;;;;;;;2.47;1.70;;;;;;;;;;5065940;28;20020;-78
2023/05/10 12:17:13;;;;;;;3.88;1.70;;;;;;;;;;5066941;28;20077;-77
2023/05/10 12:19:40;;;;;;;3.08;1.65;;;;;;;;;;5070977;28;20024;-77
2023/05/10 12:22:06;;;;;;;3.25;1.73;;;;;;;;;;5069030;28;20045;-76
2023/05/10 12:24:35;;;;;;;2.65;1.73;;;;;;;;;;5065361;28;20045;-75
2023/05/10 12:27:05;;;;;;;2.28;1.80;;;;;;;;;;5066635;28;20029;-76
2023/05/10 12:29:31;;;;;;;2.38;1.58;;;;;;;;;;5070257;28;20381;-77
2023/05/10 12:31:58;;;;;;;1.60;1.50;;;;;;;;;;5062801;28;20025;-77
2023/05/10 12:34:30;;;;;;;1.52;1.42;;;;;;;;;;5065757;28;20024;-77
2023/05/10 12:36:56;;;;;;;2.40;1.80;;;;;;;;;;5061858;28;20043;-76
2023/05/10 12:39:22;;;;;;;2.08;1.60;;;;;;;;;;5060738;28;20016;-76
2023/05/10 12:41:49;;;;;;;2.92;1.67;;;;;;;;;;5070710;28;20075;-77
2023/05/10 12:44:15;;;;;;;3.92;1.80;;;;;;;;;;5066222;28;20028;-77
2023/05/10 12:46:41;;;;;;;1.70;1.60;;;;;;;;;;5071849;28;20144;-78
2023/05/10 12:49:07;;;;;;;1.90;1.50;;;;;;;;;;5069182;28;20028;-77
2023/05/10 12:51:33;;;;;;;1.60;1.50;;;;;;;;;;5063297;28;20597;-77
2023/05/10 12:53:59;;;;;;;1.70;1.55;;;;;;;;;;5071546;28;20029;-77
2023/05/10 12:56:25;;;;;;;1.63;1.50;;;;;;;;;;5069002;28;20290;-76
2023/05/10 12:58:51;;;;;;;1.50;1.40;;;;;;;;;;5064828;28;20020;-77
2023/05/10 13:01:17;;;;;;;2.20;1.40;;;;;;;;;;5065766;28;20025;-77
2023/05/10 13:03:43;;;;;;;1.50;1.40;;;;;;;;;;5072608;28;20086;-77
2023/05/10 13:06:10;;;;;;;2.05;1.50;;;;;;;;;;5068093;28;20041;-77
2023/05/10 13:08:36;;;;;;;2.45;1.60;;;;;;;;;;5063283;28;20031;-78
2023/05/10 13:11:02;;;;;;;2.00;1.73;;;;;;;;;;5063155;28;20088;-77
2023/05/10 13:13:28;;;;;;;2.25;1.90;;;;;;;;;;5067668;28;20037;-77
2023/05/10 13:15:55;;;;;;;2.63;2.08;;;;;;;;;;5064922;28;20033;-77
2023/05/10 13:18:21;;;;;;;2.63;1.80;;;;;;;;;;5062020;28;20041;-77
2023/05/10 13:20:47;;;;;;;2.75;2.55;;;;;;;;;;5072024;28;20024;-77
2023/05/10 13:23:13;;;;;;;2.05;1.85;;;;;;;;;;5064026;28;20032;-77
2023/05/10 13:25:40;;;;;;;1.80;1.70;;;;;;;;;;5067761;28;20032;-78
2023/05/10 13:28:06;;;;;;;2.75;1.90;;;;;;;;;;5070163;28;20082;-80
2023/05/10 13:30:32;;;;;;;3.03;1.88;;;;;;;;;;5062201;28;20063;-79
2023/05/10 13:33:02;;;;;;;3.33;2.05;;;;;;;;;;5063689;28;20068;-77
2023/05/10 13:35:28;;;;;;;1.70;1.60;;;;;;;;;;5063100;28;20466;-78
2023/05/10 13:37:57;;;;;;;1.77;1.67;;;;;;;;;;5049700;28;20109;-76
2023/05/10 13:40:23;;;;;;;3.70;2.00;;;;;;;;;;5057906;28;20064;-77
2023/05/10 13:42:49;;;;;;;1.95;1.50;;;;;;;;;;5059573;28;20039;-77
2023/05/10 13:45:15;;;;;;;2.75;1.73;;;;;;;;;;5059046;28;20055;-75
2023/05/10 13:47:44;;;;;;;3.40;1.75;;;;;;;;;;5059712;28;20028;-77
2023/05/10 13:50:11;;;;;;;1.55;1.45;;;;;;;;;;5064698;28;20098;-78
2023/05/10 13:52:37;;;;;;;3.42;1.50;;;;;;;;;;5059764;28;20036;-78
2023/05/10 13:55:03;;;;;;;2.03;1.73;;;;;;;;;;5061298;28;20043;-75
2023/05/10 13:57:30;;;;;;;2.58;1.80;;;;;;;;;;5064477;28;20033;-76
2023/05/10 13:59:57;;;;;;;3.42;1.90;;;;;;;;;;5060980;28;20040;-79
2023/05/10 14:02:24;;;;;;;1.80;1.70;;;;;;;;;;5059069;28;20028;-80
2023/05/10 14:04:50;;;;;;;1.70;1.60;;;;;;;;;;5059906;28;20017;-79
2023/05/10 14:07:16;;;;;;;2.78;1.80;;;;;;;;;;5054339;28;20035;-79
2023/05/10 14:09:42;;;;;;;2.95;2.08;;;;;;;;;;5063459;28;20452;-81
2023/05/10 14:12:08;;;;;;;2.22;1.92;;;;;;;;;;5057508;28;20460;-79
2023/05/10 14:14:34;;;;;;;3.80;1.70;;;;;;;;;;5057470;28;20033;-80
2023/05/10 14:17:00;;;;;;;5.65;2.05;;;;;;;;;;5059421;28;20028;-81
2023/05/10 14:19:27;;;;;;;3.72;2.70;;;;;;;;;;5059862;28;20536;-79
2023/05/10 14:21:53;;;;;;;2.05;1.85;;;;;;;;;;5057244;28;20554;-78
2023/05/10 14:24:19;;;;;;;2.05;1.55;;;;;;;;;;5060083;28;20035;-78
2023/05/10 14:26:45;;;;;;;2.35;1.60;;;;;;;;;;5060768;28;20024;-80
2023/05/10 14:29:11;;;;;;;1.60;1.50;;;;;;;;;;5062475;28;20028;-79
2023/05/10 14:31:38;;;;;;;1.48;1.38;;;;;;;;;;5060459;28;20036;-83
2023/05/10 14:34:04;;;;;;;4.15;2.25;;;;;;;;;;5062150;28;20043;-80
2023/05/10 14:36:30;;;;;;;4.07;1.70;;;;;;;;;;5060914;28;20495;-76
2023/05/10 14:38:56;;;;;;;3.78;2.00;;;;;;;;;;5062506;28;20029;-78
2023/05/10 14:41:22;;;;;;;2.10;1.80;;;;;;;;;;5066629;28;20048;-78
2023/05/10 14:43:48;;;;;;;1.60;1.50;;;;;;;;;;5063172;28;20032;-77
2023/05/10 14:46:15;;;;;;;2.47;2.00;;;;;;;;;;5066528;28;20043;-77